createdAt,value
2022-09-23T00:00:24.561Z,61.02
2022-09-23T00:03:35.346Z,60.94
2022-09-23T00:06:24.515Z,60.95
2022-09-23T00:09:46.507Z,60.85
2022-09-23T00:12:37.367Z,60.82
2022-09-23T00:15:14.400Z,61.21
2022-09-23T00:20:37.979Z,61.49
2022-09-23T00:23:10.714Z,61.38
2022-09-23T00:25:43.865Z,61.42
2022-09-23T00:28:14.482Z,61.54
2022-09-23T00:30:44.883Z,61.69
2022-09-23T00:33:15.160Z,61.79
2022-09-23T00:35:43.529Z,61.66
2022-09-23T00:38:12.034Z,61.48
2022-09-23T00:40:49.769Z,61.48
2022-09-23T00:43:22.729Z,61.57
2022-09-23T00:46:05.345Z,61.50
2022-09-23T00:48:47.374Z,61.32
2022-09-23T00:51:19.843Z,61.24
2022-09-23T00:53:48.049Z,61.38
2022-09-23T00:56:21.008Z,61.71
2022-09-23T00:58:50.643Z,61.58
2022-09-23T01:01:19.676Z,61.38
2022-09-23T01:03:50.476Z,61.35
2022-09-23T01:06:18.541Z,61.57
2022-09-23T01:08:48.565Z,61.66
2022-09-23T01:11:21.325Z,61.56
2022-09-23T01:14:17.140Z,61.54
2022-09-23T01:16:56.656Z,61.79
2022-09-23T01:19:37.397Z,61.43
2022-09-23T01:22:16.773Z,61.12
2022-09-23T01:25:16.741Z,61.24
2022-09-23T01:28:21.246Z,61.23
2022-09-23T01:31:08.134Z,61.40
2022-09-23T01:33:47.181Z,61.57
2022-09-23T01:36:37.058Z,61.42
2022-09-23T01:39:17.126Z,61.34
2022-09-23T01:42:22.242Z,61.26
2022-09-23T01:44:56.645Z,60.97
2022-09-23T01:47:36.144Z,61.27
2022-09-23T01:50:51.201Z,61.41
2022-09-23T01:53:24.888Z,61.80
2022-09-23T01:55:57.961Z,62.16
2022-09-23T01:58:33.822Z,62.33
2022-09-23T02:01:09.904Z,62.14
2022-09-23T02:03:53.084Z,62.23
2022-09-23T02:06:21.992Z,62.15
2022-09-23T02:09:22.201Z,61.94
2022-09-23T02:11:52.642Z,61.66
2022-09-23T02:14:24.597Z,61.68
2022-09-23T02:16:58.253Z,61.64
2022-09-23T02:19:36.282Z,61.53
2022-09-23T02:22:38.247Z,61.90
2022-09-23T02:25:07.874Z,62.05
2022-09-23T02:27:51.919Z,62.09
2022-09-23T02:30:34.843Z,61.88
2022-09-23T02:33:05.061Z,61.94
2022-09-23T02:35:43.518Z,61.71
2022-09-23T02:38:26.821Z,61.92
2022-09-23T02:41:09.651Z,61.90
2022-09-23T02:44:00.066Z,62.10
2022-09-23T02:46:30.315Z,61.93
2022-09-23T02:49:11.233Z,61.66
2022-09-23T02:51:41.040Z,61.66
2022-09-23T02:54:14.976Z,61.85
2022-09-23T02:56:43.389Z,62.18
2022-09-23T02:59:19.458Z,61.71
2022-09-23T03:02:00.539Z,61.46
2022-09-23T03:04:50.451Z,61.32
2022-09-23T03:07:23.817Z,61.76
2022-09-23T03:10:10.836Z,61.85
2022-09-23T03:12:46.111Z,61.97
2022-09-23T03:15:26.415Z,61.90
2022-09-23T03:18:01.544Z,61.84
2022-09-23T03:20:58.360Z,61.79
2022-09-23T03:23:33.680Z,61.99
2022-09-23T03:26:07.463Z,61.80
2022-09-23T03:28:42.090Z,62.10
2022-09-23T03:31:12.325Z,61.86
2022-09-23T03:34:01.757Z,61.72
2022-09-23T03:36:51.625Z,61.58
2022-09-23T03:39:47.977Z,61.81
2022-09-23T03:42:27.110Z,61.92
2022-09-23T03:44:57.955Z,61.79
2022-09-23T03:47:28.906Z,61.59
2022-09-23T03:49:58.206Z,61.82
2022-09-23T03:52:26.878Z,61.52
2022-09-23T03:54:57.921Z,61.16
2022-09-23T03:57:26.114Z,61.16
2022-09-23T03:59:54.139Z,61.33
2022-09-23T04:02:22.458Z,61.25
2022-09-23T04:04:51.548Z,61.30
2022-09-23T04:07:19.627Z,62.00
2022-09-23T04:09:47.862Z,61.80
2022-09-23T04:12:16.645Z,61.69
2022-09-23T04:14:45.430Z,61.72
2022-09-23T04:17:13.507Z,61.96
2022-09-23T04:19:45.179Z,61.67
2022-09-23T04:22:15.906Z,61.65
2022-09-23T04:24:44.684Z,61.57
2022-09-23T04:27:12.872Z,61.60
2022-09-23T04:29:43.651Z,61.69
2022-09-23T04:32:11.882Z,61.41
2022-09-23T04:34:41.286Z,61.68
2022-09-23T04:37:10.378Z,61.77
2022-09-23T04:39:38.321Z,61.46
2022-09-23T04:42:07.657Z,61.71
2022-09-23T04:44:35.910Z,61.54
2022-09-23T04:47:05.569Z,61.33
2022-09-23T04:49:35.932Z,61.42
2022-09-23T04:52:08.371Z,61.28
2022-09-23T04:54:36.984Z,61.15
2022-09-23T04:57:08.334Z,61.19
2022-09-23T04:59:38.760Z,61.01
2022-09-23T05:02:08.539Z,61.30
2022-09-23T05:04:41.488Z,61.38
2022-09-23T05:07:10.666Z,61.68
2022-09-23T05:09:43.739Z,61.53
2022-09-23T05:12:12.226Z,61.60
2022-09-23T05:14:50.169Z,62.21
2022-09-23T05:17:21.994Z,62.22
2022-09-23T05:19:51.714Z,61.77
2022-09-23T05:22:22.059Z,61.70
2022-09-23T05:24:52.042Z,61.57
2022-09-23T05:27:22.582Z,61.88
2022-09-23T05:29:56.281Z,61.82
2022-09-23T05:32:33.456Z,61.87
2022-09-23T05:35:04.813Z,61.76
2022-09-23T05:37:35.146Z,61.86
2022-09-23T05:40:06.163Z,61.97
2022-09-23T05:42:34.978Z,61.91
2022-09-23T05:45:04.667Z,61.92
2022-09-23T05:47:34.619Z,62.06
2022-09-23T05:50:12.326Z,62.21
2022-09-23T05:52:44.857Z,62.01
2022-09-23T05:55:15.573Z,62.02
2022-09-23T05:57:56.983Z,62.25
2022-09-23T06:00:28.496Z,62.36
2022-09-23T06:03:06.235Z,62.36
2022-09-23T06:05:40.526Z,62.45
2022-09-23T06:08:11.805Z,62.28
2022-09-23T06:10:45.478Z,62.64
2022-09-23T06:13:17.970Z,62.69
2022-09-23T06:15:51.514Z,62.62
2022-09-23T06:18:19.722Z,62.44
2022-09-23T06:20:49.162Z,62.55
2022-09-23T06:23:17.002Z,62.52
2022-09-23T06:28:37.834Z,62.39
2022-09-23T06:31:14.290Z,62.30
2022-09-23T06:33:46.052Z,62.51
2022-09-23T06:36:35.953Z,62.62
2022-09-23T06:39:06.955Z,62.57
2022-09-23T06:41:35.722Z,62.46
2022-09-23T06:44:08.921Z,62.53
2022-09-23T06:46:37.029Z,62.31
2022-09-23T06:49:06.959Z,62.32
2022-09-23T06:51:34.989Z,62.33
2022-09-23T06:54:09.122Z,62.22
2022-09-23T06:56:39.505Z,62.20
2022-09-23T06:59:13.141Z,61.80
2022-09-23T07:01:45.319Z,61.48
2022-09-23T07:04:14.651Z,61.40
2022-09-23T07:06:42.654Z,61.54
2022-09-23T07:09:14.349Z,61.22
2022-09-23T07:11:42.393Z,61.03
2022-09-23T07:14:14.180Z,60.92
2022-09-23T07:16:42.731Z,60.61
2022-09-23T07:19:12.285Z,60.59
2022-09-23T07:21:41.634Z,60.16
2022-09-23T07:24:09.659Z,59.99
2022-09-23T07:26:44.894Z,60.11
2022-09-23T07:29:14.648Z,60.35
2022-09-23T07:31:43.350Z,60.03
2022-09-23T07:34:11.753Z,59.94
2022-09-23T07:36:43.058Z,60.20
2022-09-23T07:39:13.773Z,59.68
2022-09-23T07:41:44.620Z,59.88
2022-09-23T07:44:12.917Z,60.09
2022-09-23T07:46:44.811Z,59.75
2022-09-23T07:49:13.677Z,59.50
2022-09-23T07:51:45.970Z,58.82
2022-09-23T07:54:16.384Z,58.34
2022-09-23T07:56:45.140Z,57.89
2022-09-23T07:59:19.347Z,58.00
2022-09-23T08:01:50.631Z,58.16
2022-09-23T08:04:22.126Z,58.67
2022-09-23T08:06:52.281Z,58.07
2022-09-23T08:09:22.093Z,57.86
2022-09-23T08:11:51.066Z,58.12
2022-09-23T08:14:19.649Z,57.97
2022-09-23T08:16:47.746Z,57.73
2022-09-23T08:19:16.513Z,57.54
2022-09-23T08:21:49.398Z,56.99
2022-09-23T08:24:21.021Z,56.61
2022-09-23T08:26:53.325Z,56.07
2022-09-23T08:29:22.935Z,56.27
2022-09-23T08:31:54.183Z,56.74
2022-09-23T08:34:24.022Z,56.05
2022-09-23T08:36:52.490Z,55.01
2022-09-23T08:39:21.687Z,54.80
2022-09-23T08:42:02.459Z,55.18
2022-09-23T08:45:03.170Z,54.15
2022-09-23T08:48:10.823Z,54.00
2022-09-23T08:50:50.719Z,53.16
2022-09-23T08:53:29.963Z,52.31
2022-09-23T08:56:18.408Z,51.47
2022-09-23T08:59:05.510Z,51.37
2022-09-23T09:01:41.869Z,50.64
2022-09-23T09:04:42.401Z,49.58
2022-09-23T09:07:35.172Z,49.76
2022-09-23T09:10:18.683Z,49.52
2022-09-23T09:13:00.476Z,48.33
2022-09-23T09:15:31.162Z,48.11
2022-09-23T09:18:25.608Z,48.33
2022-09-23T09:21:08.520Z,47.29
2022-09-23T09:23:46.482Z,46.78
2022-09-23T09:26:23.004Z,46.19
2022-09-23T09:29:11.413Z,46.12
2022-09-23T09:31:51.304Z,44.56
2022-09-23T09:34:45.671Z,43.40
2022-09-23T09:37:38.418Z,42.40
2022-09-23T09:40:12.921Z,42.04
2022-09-23T09:42:50.027Z,41.96
2022-09-23T09:45:33.530Z,41.50
2022-09-23T09:54:18.213Z,40.50
2022-09-23T09:59:25.715Z,39.05
2022-09-23T10:02:32.730Z,39.28
2022-09-23T10:05:03.241Z,38.34
2022-09-23T10:07:32.759Z,37.96
2022-09-23T10:10:32.292Z,37.48
2022-09-23T10:13:15.051Z,36.73
2022-09-23T10:15:45.021Z,37.50
2022-09-23T10:18:24.730Z,37.27
2022-09-23T10:20:52.599Z,37.21
2022-09-23T10:23:24.371Z,37.68
2022-09-23T10:26:01.141Z,38.16
2022-09-23T10:28:50.357Z,37.99
2022-09-23T10:31:35.642Z,38.29
2022-09-23T10:34:24.706Z,37.57
2022-09-23T10:37:25.229Z,37.46
2022-09-23T10:40:11.844Z,37.35
2022-09-23T10:43:13.307Z,38.57
2022-09-23T10:46:06.629Z,39.60
2022-09-23T10:48:55.966Z,40.04
2022-09-23T10:51:51.607Z,40.33
2022-09-23T10:54:44.253Z,40.77
2022-09-23T10:57:41.680Z,40.50
2022-09-23T11:00:24.962Z,40.00
2022-09-23T11:03:12.902Z,39.84
2022-09-23T11:06:06.777Z,39.19
2022-09-23T11:08:53.699Z,38.34
2022-09-23T11:11:48.901Z,36.76
2022-09-23T11:14:41.030Z,36.35
2022-09-23T11:17:33.589Z,34.71
2022-09-23T11:20:31.206Z,34.97
2022-09-23T11:23:05.697Z,34.12
2022-09-23T11:25:47.157Z,34.21
2022-09-23T11:28:30.184Z,34.05
2022-09-23T11:31:05.720Z,34.92
2022-09-23T11:33:42.505Z,34.63
2022-09-23T11:36:28.530Z,34.08
2022-09-23T11:38:57.253Z,34.15
2022-09-23T11:41:38.547Z,34.67
2022-09-23T11:44:12.591Z,34.24
2022-09-23T11:46:49.419Z,33.43
2022-09-23T11:49:17.215Z,33.42
2022-09-23T11:52:14.403Z,31.58
2022-09-23T11:55:04.673Z,31.58
2022-09-23T11:57:52.925Z,31.17
2022-09-23T12:00:38.435Z,30.52
2022-09-23T12:03:23.545Z,29.05
2022-09-23T12:05:56.690Z,28.64
2022-09-23T12:08:32.353Z,28.36
2022-09-23T12:11:20.301Z,28.65
2022-09-23T12:14:16.422Z,27.73
2022-09-23T12:16:48.709Z,26.88
2022-09-23T12:19:55.481Z,26.13
2022-09-23T12:22:26.652Z,25.57
2022-09-23T12:24:56.881Z,26.00
2022-09-23T12:27:40.234Z,26.28
2022-09-23T12:30:15.186Z,25.89
2022-09-23T12:32:43.462Z,25.40
2022-09-23T12:35:26.957Z,26.14
2022-09-23T12:37:54.834Z,25.93
2022-09-23T12:40:31.089Z,25.35
2022-09-23T12:43:01.205Z,25.11
2022-09-23T12:45:34.830Z,24.61
2022-09-23T12:48:43.745Z,25.08
2022-09-23T12:51:16.351Z,25.07
2022-09-23T12:53:59.766Z,25.14
2022-09-23T12:56:38.625Z,24.67
2022-09-23T12:59:09.449Z,25.12
2022-09-23T13:01:38.047Z,25.80
2022-09-23T13:04:24.616Z,26.11
2022-09-23T13:07:08.836Z,27.23
2022-09-23T13:09:41.576Z,27.64
2022-09-23T13:12:18.816Z,27.88
2022-09-23T13:14:49.746Z,27.70
2022-09-23T13:17:29.817Z,27.97
2022-09-23T13:20:02.756Z,28.25
2022-09-23T13:23:01.795Z,27.75
2022-09-23T13:25:35.058Z,26.98
2022-09-23T13:28:03.834Z,26.97
2022-09-23T13:30:31.646Z,27.39
2022-09-23T13:33:18.833Z,27.76
2022-09-23T13:35:52.403Z,27.57
2022-09-23T13:38:26.214Z,26.50
2022-09-23T13:40:57.599Z,25.72
2022-09-23T13:43:31.839Z,24.95
2022-09-23T13:46:01.016Z,24.68
2022-09-23T13:48:28.885Z,23.66
2022-09-23T13:50:56.918Z,23.08
2022-09-23T13:53:29.262Z,22.79
2022-09-23T13:56:15.921Z,22.60
2022-09-23T13:58:43.720Z,22.56
2022-09-23T14:01:33.778Z,21.89
2022-09-23T14:04:04.904Z,21.97
2022-09-23T14:06:36.039Z,21.86
2022-09-23T14:09:03.901Z,23.18
2022-09-23T14:11:35.407Z,23.73
2022-09-23T14:14:07.416Z,23.86
2022-09-23T14:16:38.154Z,23.38
2022-09-23T14:19:08.086Z,22.97
2022-09-23T14:21:37.774Z,22.37
2022-09-23T14:24:41.467Z,22.05
2022-09-23T14:27:19.043Z,21.85
2022-09-23T14:29:48.222Z,22.86
2022-09-23T14:32:21.247Z,23.66
2022-09-23T14:34:59.503Z,24.34
2022-09-23T14:38:10.612Z,23.74
2022-09-23T14:40:51.344Z,23.56
2022-09-23T14:43:26.199Z,23.12
2022-09-23T14:45:55.938Z,24.05
2022-09-23T14:48:27.360Z,25.05
2022-09-23T14:51:06.624Z,25.95
2022-09-23T14:53:34.444Z,27.07
2022-09-23T14:56:08.473Z,29.02
2022-09-23T14:58:54.734Z,29.86
2022-09-23T15:01:27.728Z,30.17
2022-09-23T15:03:56.151Z,31.62
2022-09-23T15:06:24.791Z,32.78
2022-09-23T15:08:53.398Z,33.58
2022-09-23T15:11:25.272Z,34.04
2022-09-23T15:13:52.951Z,34.09
2022-09-23T15:16:28.006Z,34.09
2022-09-23T15:18:57.870Z,34.67
2022-09-23T15:21:41.036Z,34.77
2022-09-23T15:24:41.394Z,35.04
2022-09-23T15:27:29.339Z,35.77
2022-09-23T15:30:17.082Z,36.68
2022-09-23T15:32:45.798Z,37.48
2022-09-23T15:35:19.150Z,38.56
2022-09-23T15:37:49.275Z,39.43
2022-09-23T15:40:22.659Z,40.38
2022-09-23T15:42:53.793Z,40.78
2022-09-23T15:45:29.308Z,40.84
2022-09-23T15:48:00.984Z,40.54
2022-09-23T15:50:30.235Z,41.17
2022-09-23T15:52:59.475Z,41.56
2022-09-23T15:55:27.494Z,42.12
2022-09-23T15:57:57.170Z,42.58
2022-09-23T16:00:25.362Z,43.57
2022-09-23T16:02:54.072Z,45.02
2022-09-23T16:05:37.002Z,45.66
2022-09-23T16:08:08.937Z,46.42
2022-09-23T16:10:37.805Z,46.65
2022-09-23T16:13:08.877Z,46.99
2022-09-23T16:15:39.105Z,47.49
2022-09-23T16:18:08.627Z,47.90
2022-09-23T16:20:44.723Z,48.43
2022-09-23T16:23:34.463Z,48.94
2022-09-23T16:26:06.330Z,49.26
2022-09-23T16:28:34.493Z,49.73
2022-09-23T16:31:03.095Z,50.19
2022-09-23T16:33:31.007Z,50.66
2022-09-23T16:36:00.897Z,51.29
2022-09-23T16:38:29.558Z,51.73
2022-09-23T16:41:00.176Z,52.31
2022-09-23T16:43:31.719Z,52.94
2022-09-23T16:45:59.644Z,53.38
2022-09-23T16:48:27.488Z,53.82
2022-09-23T16:50:55.277Z,54.35
2022-09-23T16:53:23.567Z,54.37
2022-09-23T16:55:53.474Z,54.83
2022-09-23T16:58:21.317Z,55.40
2022-09-23T17:01:07.921Z,55.49
2022-09-23T17:03:41.972Z,55.71
2022-09-23T17:06:13.517Z,55.86
2022-09-23T17:08:42.827Z,56.15
2022-09-23T17:11:11.133Z,56.78
2022-09-23T17:13:41.237Z,56.93
2022-09-23T17:16:11.815Z,57.37
2022-09-23T17:18:39.682Z,57.88
2022-09-23T17:21:08.598Z,58.12
2022-09-23T17:23:37.176Z,58.30
2022-09-23T17:26:05.508Z,58.57
2022-09-23T17:28:33.488Z,58.79
2022-09-23T17:31:03.822Z,59.00
2022-09-23T17:33:35.239Z,59.03
2022-09-23T17:36:07.788Z,59.32
2022-09-23T17:38:36.110Z,59.47
2022-09-23T17:41:04.857Z,59.45
2022-09-23T17:43:33.536Z,59.60
2022-09-23T17:46:06.382Z,59.46
2022-09-23T17:48:36.003Z,59.47
2022-09-23T17:51:06.451Z,59.96
2022-09-23T17:53:37.079Z,60.15
2022-09-23T17:56:08.292Z,60.30
2022-09-23T17:58:37.524Z,60.14
2022-09-23T18:01:12.475Z,60.42
2022-09-23T18:03:43.479Z,60.47
2022-09-23T18:06:19.550Z,60.72
2022-09-23T18:08:49.286Z,60.66
2022-09-23T18:11:25.413Z,60.40
2022-09-23T18:14:01.286Z,60.09
2022-09-23T18:16:31.256Z,59.88
2022-09-23T18:19:00.710Z,59.72
2022-09-23T18:21:31.589Z,59.55
2022-09-23T18:24:28.057Z,59.43
2022-09-23T18:26:49.783Z,59.71
2022-09-23T18:29:18.616Z,60.09
2022-09-23T18:31:51.112Z,59.99
2022-09-23T18:34:20.448Z,60.10
2022-09-23T18:36:48.409Z,60.23
2022-09-23T18:39:16.738Z,60.01
2022-09-23T18:41:45.173Z,59.96
2022-09-23T18:44:13.090Z,60.14
2022-09-23T18:46:40.873Z,60.22
2022-09-23T18:49:27.751Z,60.55
2022-09-23T18:51:57.436Z,60.55
2022-09-23T18:54:28.471Z,60.65
2022-09-23T18:56:56.800Z,60.57
2022-09-23T18:59:28.024Z,60.57
2022-09-23T19:02:00.479Z,60.23
2022-09-23T19:04:29.098Z,60.23
2022-09-23T19:06:57.984Z,60.15
2022-09-23T19:09:26.272Z,60.19
2022-09-23T19:11:54.372Z,60.41
2022-09-23T19:14:22.320Z,60.37
2022-09-23T19:16:50.903Z,60.39
2022-09-23T19:19:18.837Z,59.93
2022-09-23T19:21:46.698Z,59.70
2022-09-23T19:24:19.853Z,59.64
2022-09-23T19:26:48.751Z,59.79
2022-09-23T19:29:22.019Z,59.74
2022-09-23T19:31:51.054Z,60.09
2022-09-23T19:34:23.771Z,60.16
2022-09-23T19:36:53.028Z,60.21
2022-09-23T19:39:23.452Z,60.39
2022-09-23T19:41:52.473Z,60.18
2022-09-23T19:44:20.545Z,60.18
2022-09-23T19:46:55.010Z,60.25
2022-09-23T19:49:25.886Z,60.24
2022-09-23T19:51:55.969Z,60.25
2022-09-23T19:54:27.470Z,60.25
2022-09-23T19:56:56.073Z,60.49
2022-09-23T19:59:26.555Z,60.58
2022-09-23T20:01:54.955Z,60.65
2022-09-23T20:04:23.516Z,60.73
2022-09-23T20:06:52.356Z,60.78
2022-09-23T20:09:20.811Z,60.83
2022-09-23T20:11:48.804Z,60.97
2022-09-23T20:14:17.933Z,61.03
2022-09-23T20:16:46.231Z,60.89
2022-09-23T20:19:14.281Z,60.77
2022-09-23T20:21:42.090Z,60.86
2022-09-23T20:24:11.929Z,61.05
2022-09-23T20:26:58.169Z,60.89
2022-09-23T20:29:26.449Z,60.93
2022-09-23T20:31:54.423Z,60.93
2022-09-23T20:34:22.565Z,60.85
2022-09-23T20:36:50.651Z,60.96
2022-09-23T20:39:18.434Z,61.24
2022-09-23T20:41:48.156Z,61.35
2022-09-23T20:44:16.105Z,61.15
2022-09-23T20:46:48.773Z,61.33
2022-09-23T20:49:17.688Z,61.35
2022-09-23T20:51:48.240Z,61.36
2022-09-23T20:54:21.590Z,61.45
2022-09-23T20:56:49.451Z,61.41
2022-09-23T20:59:18.502Z,61.54
2022-09-23T21:01:46.580Z,61.70
2022-09-23T21:04:14.521Z,61.83
2022-09-23T21:06:42.263Z,61.87
2022-09-23T21:09:10.045Z,61.74
2022-09-23T21:11:38.188Z,61.68
2022-09-23T21:14:06.072Z,61.66
2022-09-23T21:16:34.073Z,61.72
2022-09-23T21:19:03.349Z,61.60
2022-09-23T21:21:31.203Z,61.70
2022-09-23T21:24:17.167Z,61.66
2022-09-23T21:26:47.777Z,61.50
2022-09-23T21:29:16.214Z,61.66
2022-09-23T21:31:44.195Z,61.62
2022-09-23T21:34:12.682Z,61.66
2022-09-23T21:36:43.103Z,61.68
2022-09-23T21:39:11.507Z,61.63
2022-09-23T21:41:40.025Z,61.73
2022-09-23T21:44:08.515Z,61.77
2022-09-23T21:46:36.813Z,61.73
2022-09-23T21:49:05.334Z,61.89
2022-09-23T21:51:40.796Z,61.94
2022-09-23T21:54:15.522Z,62.16
2022-09-23T21:56:44.000Z,62.26
2022-09-23T21:59:12.031Z,62.09
2022-09-23T22:01:43.553Z,62.17
2022-09-23T22:04:16.990Z,61.97
2022-09-23T22:06:45.716Z,61.91
2022-09-23T22:09:16.899Z,62.01
2022-09-23T22:12:03.902Z,62.14
2022-09-23T22:14:32.011Z,62.19
2022-09-23T22:17:01.356Z,62.27
2022-09-23T22:19:35.462Z,62.34
2022-09-23T22:22:13.291Z,62.35
2022-09-23T22:24:44.954Z,62.31
2022-09-23T22:27:14.417Z,62.22
2022-09-23T22:30:00.795Z,62.18
2022-09-23T22:32:46.161Z,62.40
2022-09-23T22:35:19.176Z,62.47
2022-09-23T22:37:48.245Z,62.53
2022-09-23T22:40:16.366Z,62.53
2022-09-23T22:42:44.488Z,62.41
2022-09-23T22:45:13.435Z,62.24
2022-09-23T22:47:45.149Z,62.41
2022-09-23T22:50:14.687Z,62.47
2022-09-23T22:52:43.197Z,62.46
2022-09-23T22:55:11.741Z,62.44
2022-09-23T22:57:39.621Z,62.33
2022-09-23T23:01:43.644Z,62.47
2022-09-23T23:04:13.255Z,62.42
2022-09-23T23:06:44.006Z,62.52
2022-09-23T23:09:16.893Z,62.74
2022-09-23T23:11:47.427Z,62.85
2022-09-23T23:14:18.056Z,63.10
2022-09-23T23:16:46.580Z,63.09
2022-09-23T23:19:17.523Z,63.09
2022-09-23T23:21:48.815Z,63.25
2022-09-23T23:24:23.234Z,63.35
2022-09-23T23:26:53.564Z,63.69
2022-09-23T23:29:24.145Z,63.49
2022-09-23T23:31:52.612Z,63.52
2022-09-23T23:34:21.586Z,63.37
2022-09-23T23:36:54.738Z,63.24
2022-09-23T23:39:25.398Z,63.34
2022-09-23T23:41:59.404Z,63.45
2022-09-23T23:44:27.792Z,63.26
2022-09-23T23:46:56.017Z,63.18
2022-09-23T23:49:28.797Z,63.30
2022-09-23T23:51:59.280Z,63.40
2022-09-23T23:54:27.548Z,63.46
2022-09-23T23:56:55.748Z,63.27
2022-09-23T23:59:27.670Z,63.47
